Time;durP1;ratioP1;P1;durP2;ratioP2;P2;SDS_P1;SDS_P2;PMS_P1;PMS_P2;Temp;Humidity;BMP_temperature;BMP_pressure;BME280_temperature;BME280_humidity;BME280_pressure;Samples;Min_cycle;Max_cycle;Signal;HPM_P1;HPM_P2
2021/10/15 00:00:34;;;;;;;;;;;7.30;99.90;;;;;;5034693;28;19912;-74
2021/10/15 00:03:00;;;;;;;;;;;7.40;99.90;;;;;;5052540;28;19905;-74
2021/10/15 00:05:27;;;;;;;;;;;7.50;99.90;;;;;;5052283;28;19905;-74
2021/10/15 00:07:53;;;;;;;;;;;7.50;99.90;;;;;;5052471;28;19934;-74
2021/10/15 00:10:18;;;;;;;;;;;7.40;99.90;;;;;;5052413;28;19905;-74
2021/10/15 00:12:44;;;;;;;;;;;7.30;99.90;;;;;;5034642;28;20318;-74
2021/10/15 00:15:09;;;;;;;;;;;7.30;99.90;;;;;;5017962;28;20284;-74
2021/10/15 00:17:35;;;;;;;;;;;7.40;99.90;;;;;;5052218;28;19989;-74
2021/10/15 00:20:01;;;;;;;;;;;7.40;99.90;;;;;;5034445;28;20015;-74
2021/10/15 00:22:27;;;;;;;;;;;7.50;99.90;;;;;;5052363;28;19909;-74
2021/10/15 00:24:53;;;;;;;;;;;7.40;99.90;;;;;;5051215;28;19948;-74
2021/10/15 00:27:18;;;;;;;;;;;7.40;99.90;;;;;;5034452;28;19913;-74
2021/10/15 00:29:44;;;;;;;;;;;7.50;99.90;;;;;;5034244;28;19943;-74
2021/10/15 00:32:10;;;;;;;;;;;7.40;99.90;;;;;;5052252;28;19908;-74
2021/10/15 00:34:35;;;;;;;;;;;7.30;99.90;;;;;;5034221;28;19904;-74
2021/10/15 00:37:01;;;;;;;;;;;7.30;99.90;;;;;;5017859;28;19950;-74
2021/10/15 00:39:26;;;;;;;;;;;7.30;99.90;;;;;;5051988;28;19930;-74
2021/10/15 00:41:52;;;;;;;;;;;7.40;99.90;;;;;;5034400;28;19909;-74
2021/10/15 00:44:18;;;;;;;;;;;7.30;99.90;;;;;;5034125;28;19911;-74
2021/10/15 00:46:44;;;;;;;;;;;7.20;99.90;;;;;;5051831;28;19912;-74
2021/10/15 00:49:11;;;;;;;;;;;7.20;99.90;;;;;;5051982;28;19905;-74
2021/10/15 00:51:37;;;;;;;;;;;7.10;99.90;;;;;;5033625;28;19912;-74
2021/10/15 00:54:03;;;;;;;;;;;6.90;99.90;;;;;;5034259;28;19958;-74
2021/10/15 00:56:29;;;;;;;;;;;6.80;99.90;;;;;;5034045;28;19908;-74
2021/10/15 00:58:55;;;;;;;;;;;6.90;99.90;;;;;;5033982;28;19974;-74
2021/10/15 01:01:21;;;;;;;;;;;6.80;99.90;;;;;;5051518;28;20007;-74
2021/10/15 01:03:47;;;;;;;;;;;6.70;99.90;;;;;;5034050;28;20355;-74
2021/10/15 01:06:13;;;;;;;;;;;6.80;99.90;;;;;;5017399;28;19905;-74
2021/10/15 01:08:40;;;;;;;;;;;6.70;99.90;;;;;;5034033;28;19905;-74
2021/10/15 01:11:06;;;;;;;;;;;6.80;99.90;;;;;;5034131;28;19904;-74
2021/10/15 01:13:33;;;;;;;;;;;6.60;99.90;;;;;;5033928;28;19904;-74
2021/10/15 01:16:05;;;;;;;;;;;6.50;99.90;;;;;;5051666;28;19912;-74
2021/10/15 01:18:31;;;;;;;;;;;6.50;99.90;;;;;;5051582;28;20574;-74
2021/10/15 01:20:56;;;;;;;;;;;6.50;99.90;;;;;;5051325;28;19999;-74
2021/10/15 01:23:22;;;;;;;;;;;6.60;99.90;;;;;;5051807;28;19912;-74
2021/10/15 01:25:50;;;;;;;;;;;6.60;99.90;;;;;;5033716;28;19912;-74
2021/10/15 01:28:16;;;;;;;;;;;6.60;99.90;;;;;;5033675;28;19950;-74
2021/10/15 01:30:41;;;;;;;;;;;6.50;99.90;;;;;;5033371;28;20009;-74
2021/10/15 01:33:07;;;;;;;;;;;6.50;99.90;;;;;;5033851;28;20015;-74
2021/10/15 01:35:33;;;;;;;;;;;6.40;99.90;;;;;;5052963;28;20042;-74
2021/10/15 01:37:58;;;;;;;;;;;6.20;99.90;;;;;;5037247;28;19944;-74
2021/10/15 01:40:24;;;;;;;;;;;6.00;99.90;;;;;;5055037;28;20014;-74
2021/10/15 01:42:56;;;;;;;;;;;5.80;99.90;;;;;;5037318;28;19905;-74
2021/10/15 01:45:26;;;;;;;;;;;5.80;99.90;;;;;;5036996;28;19905;-74
2021/10/15 01:47:52;;;;;;;;;;;5.90;99.90;;;;;;5054990;28;19995;-74
2021/10/15 01:50:18;;;;;;;;;;;5.90;99.90;;;;;;5055047;28;19909;-74
2021/10/15 01:52:44;;;;;;;;;;;6.10;99.90;;;;;;5054971;28;20261;-74
2021/10/15 01:55:09;;;;;;;;;;;6.00;99.90;;;;;;5036821;28;19908;-74
2021/10/15 01:57:35;;;;;;;;;;;5.90;99.90;;;;;;5054835;28;19915;-74
2021/10/15 02:00:03;;;;;;;;;;;5.90;99.90;;;;;;5054767;28;19912;-74
2021/10/15 02:02:29;;;;;;;;;;;5.70;99.90;;;;;;5054723;28;19959;-73
2021/10/15 02:04:54;;;;;;;;;;;5.70;99.90;;;;;;5054508;28;20359;-74
2021/10/15 02:07:20;;;;;;;;;;;5.60;99.90;;;;;;5020388;28;19905;-74
2021/10/15 02:09:45;;;;;;;;;;;5.70;99.90;;;;;;5036726;28;19905;-74
2021/10/15 02:12:11;;;;;;;;;;;5.70;99.90;;;;;;5054624;28;19971;-74
2021/10/15 02:14:37;;;;;;;;;;;5.90;99.90;;;;;;5054383;28;19905;-74
2021/10/15 02:17:02;;;;;;;;;;;5.90;99.90;;;;;;5054519;28;20249;-74
2021/10/15 02:19:28;;;;;;;;;;;5.90;99.90;;;;;;5054369;28;19904;-74
2021/10/15 02:21:53;;;;;;;;;;;6.00;99.90;;;;;;5036504;28;19911;-74
2021/10/15 02:24:19;;;;;;;;;;;6.00;99.90;;;;;;5054224;28;19962;-74
2021/10/15 02:26:45;;;;;;;;;;;5.90;99.90;;;;;;5054157;28;19931;-74
2021/10/15 02:29:10;;;;;;;;;;;5.80;99.90;;;;;;5036472;28;19909;-74
2021/10/15 02:31:36;;;;;;;;;;;5.60;99.90;;;;;;5035930;28;19947;-74
2021/10/15 02:34:01;;;;;;;;;;;5.60;99.90;;;;;;5054206;28;20420;-74
2021/10/15 02:36:27;;;;;;;;;;;5.60;99.90;;;;;;5053885;28;19905;-74
2021/10/15 02:38:52;;;;;;;;;;;5.60;99.90;;;;;;5054003;28;19927;-74
2021/10/15 02:41:18;;;;;;;;;;;5.60;99.90;;;;;;5054005;28;19944;-74
2021/10/15 02:43:44;;;;;;;;;;;5.70;99.90;;;;;;5019709;28;19987;-74
2021/10/15 02:46:14;;;;;;;;;;;5.70;99.90;;;;;;5053470;28;19912;-74
2021/10/15 02:48:39;;;;;;;;;;;5.70;99.90;;;;;;5035647;28;19943;-74
2021/10/15 02:51:05;;;;;;;;;;;5.90;99.90;;;;;;5036069;28;19948;-74
2021/10/15 02:53:30;;;;;;;;;;;5.90;99.90;;;;;;5053858;28;19915;-74
2021/10/15 02:55:56;;;;;;;;;;;5.80;99.90;;;;;;5035777;28;19936;-74
2021/10/15 02:58:22;;;;;;;;;;;5.70;99.90;;;;;;5053573;28;19912;-74
2021/10/15 03:00:50;;;;;;;;;;;5.50;99.90;;;;;;5035783;28;19909;-74
2021/10/15 03:03:15;;;;;;;;;;;5.50;99.90;;;;;;5035704;28;19916;-74
2021/10/15 03:05:41;;;;;;;;;;;5.50;99.90;;;;;;5035637;28;19908;-74
2021/10/15 03:08:07;;;;;;;;;;;5.60;99.90;;;;;;5035752;28;19904;-74
2021/10/15 03:10:33;;;;;;;;;;;5.70;99.90;;;;;;5053620;28;19958;-74
2021/10/15 03:12:58;;;;;;;;;;;5.70;99.90;;;;;;5053540;28;19909;-74
2021/10/15 03:15:24;;;;;;;;;;;5.80;99.90;;;;;;5035241;28;19909;-74
2021/10/15 03:17:49;;;;;;;;;;;5.90;99.90;;;;;;5053260;28;19905;-74
2021/10/15 03:20:15;;;;;;;;;;;5.90;99.90;;;;;;5035292;28;19912;-74
2021/10/15 03:22:40;;;;;;;;;;;5.80;99.90;;;;;;5053275;28;19905;-74
2021/10/15 03:25:06;;;;;;;;;;;5.80;99.90;;;;;;5052869;28;19913;-74
2021/10/15 03:27:32;;;;;;;;;;;5.90;99.90;;;;;;5053009;28;19912;-74
2021/10/15 03:29:57;;;;;;;;;;;6.10;99.90;;;;;;5052749;28;19904;-75
2021/10/15 03:32:23;;;;;;;;;;;6.10;99.90;;;;;;5053037;28;19913;-74
2021/10/15 03:34:49;;;;;;;;;;;6.10;99.90;;;;;;5034969;28;19940;-74
2021/10/15 03:37:14;;;;;;;;;;;6.10;99.90;;;;;;5052998;28;19909;-74
2021/10/15 03:39:40;;;;;;;;;;;5.90;99.90;;;;;;5052840;28;19911;-74
2021/10/15 03:42:05;;;;;;;;;;;5.70;99.90;;;;;;5052892;28;19905;-73
2021/10/15 03:44:31;;;;;;;;;;;5.70;99.90;;;;;;5034841;28;19931;-74
2021/10/15 03:46:57;;;;;;;;;;;5.50;99.90;;;;;;5052773;28;19909;-74
2021/10/15 03:49:22;;;;;;;;;;;5.50;99.90;;;;;;5052696;28;19905;-74
2021/10/15 03:51:48;;;;;;;;;;;5.40;99.90;;;;;;5034910;28;20000;-74
2021/10/15 03:54:14;;;;;;;;;;;5.30;99.90;;;;;;5052763;28;20015;-74
2021/10/15 03:56:40;;;;;;;;;;;5.20;99.90;;;;;;5018100;28;19904;-74
2021/10/15 03:59:05;;;;;;;;;;;5.20;99.90;;;;;;5052542;28;19950;-74
2021/10/15 04:01:31;;;;;;;;;;;5.10;99.90;;;;;;5052487;28;20371;-74
2021/10/15 04:03:56;;;;;;;;;;;5.10;99.90;;;;;;5034591;28;19904;-74
2021/10/15 04:06:22;;;;;;;;;;;5.00;99.90;;;;;;5052361;28;20062;-73
2021/10/15 04:08:48;;;;;;;;;;;5.00;99.90;;;;;;5034492;28;19927;-74
2021/10/15 04:11:15;;;;;;;;;;;4.90;99.90;;;;;;5052493;28;19912;-73
2021/10/15 04:13:41;;;;;;;;;;;4.80;99.90;;;;;;5018132;28;20411;-74
2021/10/15 04:16:07;;;;;;;;;;;4.80;99.90;;;;;;5052167;28;19908;-74
2021/10/15 04:18:32;;;;;;;;;;;4.80;99.90;;;;;;5052311;28;19904;-74
2021/10/15 04:20:58;;;;;;;;;;;4.80;99.90;;;;;;5034308;28;19913;-74
2021/10/15 04:23:24;;;;;;;;;;;4.80;99.90;;;;;;5034634;28;19929;-74
2021/10/15 04:25:49;;;;;;;;;;;4.90;99.90;;;;;;5034324;28;19913;-74
2021/10/15 04:28:16;;;;;;;;;;;4.90;99.90;;;;;;5034308;28;20433;-74
2021/10/15 04:30:43;;;;;;;;;;;5.00;99.90;;;;;;5034052;28;19909;-74
2021/10/15 04:33:08;;;;;;;;;;;5.10;99.90;;;;;;5017901;28;20330;-74
2021/10/15 04:35:34;;;;;;;;;;;5.20;99.90;;;;;;5034061;28;19944;-74
2021/10/15 04:38:00;;;;;;;;;;;5.20;99.90;;;;;;5034120;28;20003;-74
2021/10/15 04:40:25;;;;;;;;;;;5.30;99.90;;;;;;5051982;28;19912;-74
2021/10/15 04:42:51;;;;;;;;;;;5.30;99.90;;;;;;5034103;28;19996;-74
2021/10/15 04:45:16;;;;;;;;;;;5.30;99.90;;;;;;5051798;28;19950;-74
2021/10/15 04:47:42;;;;;;;;;;;5.30;99.90;;;;;;5051918;28;20345;-74
2021/10/15 04:50:08;;;;;;;;;;;5.30;99.90;;;;;;5052077;28;19912;-74
2021/10/15 04:52:34;;;;;;;;;;;5.40;99.90;;;;;;5034345;28;19904;-74
2021/10/15 04:55:00;;;;;;;;;;;5.50;99.90;;;;;;5017560;28;19909;-74
2021/10/15 04:57:26;;;;;;;;;;;5.50;99.90;;;;;;5051937;28;19912;-74
2021/10/15 04:59:52;;;;;;;;;;;5.50;99.90;;;;;;5033458;28;19986;-74
2021/10/15 05:02:17;;;;;;;;;;;5.60;99.90;;;;;;5033659;28;20352;-74
2021/10/15 05:04:43;;;;;;;;;;;5.50;99.90;;;;;;5033716;28;19905;-74
2021/10/15 05:07:09;;;;;;;;;;;5.50;99.90;;;;;;5051921;28;19909;-74
2021/10/15 05:09:36;;;;;;;;;;;5.50;99.90;;;;;;5051794;28;19909;-74
2021/10/15 05:12:03;;;;;;;;;;;5.40;99.90;;;;;;5037888;28;19905;-74
2021/10/15 05:14:30;;;;;;;;;;;5.40;99.90;;;;;;5055557;28;19905;-74
2021/10/15 05:16:55;;;;;;;;;;;5.50;99.90;;;;;;5037907;28;19915;-74
2021/10/15 05:19:21;;;;;;;;;;;5.70;99.90;;;;;;5037578;28;19905;-74
2021/10/15 05:21:47;;;;;;;;;;;5.60;99.90;;;;;;5055470;28;19909;-74
2021/10/15 05:24:12;;;;;;;;;;;5.50;99.90;;;;;;5055390;28;19909;-74
2021/10/15 05:26:38;;;;;;;;;;;5.40;99.90;;;;;;5055260;28;19905;-74
2021/10/15 05:29:03;;;;;;;;;;;5.50;99.90;;;;;;5055105;28;19905;-74
2021/10/15 05:31:29;;;;;;;;;;;5.50;99.90;;;;;;5037264;28;19904;-75
2021/10/15 05:33:55;;;;;;;;;;;5.40;99.90;;;;;;5055234;28;19956;-74
2021/10/15 05:36:20;;;;;;;;;;;5.50;99.90;;;;;;5054336;28;19915;-74
2021/10/15 05:38:46;;;;;;;;;;;5.40;99.90;;;;;;5055013;28;19905;-74
2021/10/15 05:41:12;;;;;;;;;;;5.40;99.90;;;;;;5055062;28;20422;-75
2021/10/15 05:43:37;;;;;;;;;;;5.50;99.90;;;;;;5036975;28;19905;-75
2021/10/15 05:46:03;;;;;;;;;;;5.60;99.90;;;;;;5054794;28;19905;-74
2021/10/15 05:48:29;;;;;;;;;;;5.60;99.90;;;;;;5036318;28;19950;-74
2021/10/15 05:50:54;;;;;;;;;;;5.50;99.90;;;;;;5037105;28;20360;-74
2021/10/15 05:53:22;;;;;;;;;;;5.50;99.90;;;;;;5020583;28;19959;-74
2021/10/15 05:58:50;;;;;;;;;;;5.50;99.90;;;;;;5054796;28;19905;-75
2021/10/15 06:01:25;;;;;;;;;;;5.40;99.90;;;;;;5036160;28;20225;-75
2021/10/15 06:14:40;;;;;;;;;;;5.70;99.90;;;;;;5035783;28;19959;-75
2021/10/15 06:17:08;;;;;;;;;;;5.80;99.90;;;;;;5054359;28;19905;-74
2021/10/15 06:19:47;;;;;;;;;;;5.60;99.90;;;;;;5036272;28;20391;-75
2021/10/15 06:22:12;;;;;;;;;;;5.60;99.90;;;;;;5035394;28;19905;-74
2021/10/15 06:24:38;;;;;;;;;;;5.60;99.90;;;;;;5033494;28;19924;-74
2021/10/15 06:27:04;;;;;;;;;;;5.80;99.90;;;;;;5052098;28;19909;-74
2021/10/15 06:29:29;;;;;;;;;;;5.90;99.90;;;;;;5052841;28;19915;-74
2021/10/15 06:31:55;;;;;;;;;;;5.90;99.90;;;;;;5018767;28;20318;-75
2021/10/15 06:34:21;;;;;;;;;;;5.80;99.90;;;;;;5035670;28;20415;-74
2021/10/15 06:36:46;;;;;;;;;;;5.80;99.90;;;;;;5053130;28;20276;-75
2021/10/15 06:39:12;;;;;;;;;;;5.90;99.90;;;;;;5035323;28;19979;-75
2021/10/15 06:41:37;;;;;;;;;;;6.00;99.90;;;;;;5036916;28;19908;-75
2021/10/15 06:44:03;;;;;;;;;;;6.00;99.90;;;;;;5053127;28;19911;-74
2021/10/15 06:46:29;;;;;;;;;;;6.00;99.90;;;;;;5055678;28;19912;-74
2021/10/15 06:48:54;;;;;;;;;;;6.20;99.90;;;;;;5051379;28;19909;-74
2021/10/15 06:51:20;;;;;;;;;;;6.30;99.90;;;;;;5033733;28;19904;-74
2021/10/15 06:53:46;;;;;;;;;;;6.30;99.90;;;;;;5034750;28;19905;-74
2021/10/15 06:56:12;;;;;;;;;;;6.30;99.90;;;;;;5020172;28;19908;-74
2021/10/15 06:58:37;;;;;;;;;;;6.40;99.90;;;;;;5051372;28;19912;-75
2021/10/15 07:01:03;;;;;;;;;;;6.50;99.90;;;;;;5055827;28;19908;-74
2021/10/15 07:03:29;;;;;;;;;;;6.60;99.90;;;;;;5029933;28;19905;-75
2021/10/15 07:05:55;;;;;;;;;;;6.80;99.90;;;;;;5033171;28;20523;-74
2021/10/15 07:08:21;;;;;;;;;;;7.00;99.90;;;;;;5052313;28;19905;-75
2021/10/15 07:10:47;;;;;;;;;;;7.10;99.90;;;;;;5053907;28;19978;-75
2021/10/15 07:13:14;;;;;;;;;;;7.10;99.90;;;;;;5052438;28;19930;-75
2021/10/15 07:15:39;;;;;;;;;;;7.20;99.90;;;;;;5033468;28;19912;-74
2021/10/15 07:18:07;;;;;;;;;;;7.30;99.90;;;;;;5047296;28;20452;-74
2021/10/15 07:20:32;;;;;;;;;;;7.30;99.90;;;;;;5052179;28;19913;-74
2021/10/15 07:22:58;;;;;;;;;;;7.20;99.90;;;;;;5051357;28;20368;-75
2021/10/15 07:25:23;;;;;;;;;;;7.20;99.90;;;;;;5018730;28;19919;-74
2021/10/15 07:27:49;;;;;;;;;;;7.20;99.90;;;;;;5051776;28;20378;-75
2021/10/15 07:30:15;;;;;;;;;;;7.30;99.90;;;;;;5016994;28;19991;-75
2021/10/15 07:32:41;;;;;;;;;;;7.30;99.90;;;;;;5051195;28;19987;-75
2021/10/15 07:35:06;;;;;;;;;;;7.40;99.90;;;;;;5050946;28;19905;-74
2021/10/15 07:37:32;;;;;;;;;;;7.50;99.90;;;;;;5033563;28;19905;-74
2021/10/15 07:39:58;;;;;;;;;;;7.50;99.90;;;;;;5051698;28;19915;-74
2021/10/15 07:42:24;;;;;;;;;;;7.60;99.90;;;;;;5051034;28;19912;-74
2021/10/15 07:44:49;;;;;;;;;;;7.60;99.90;;;;;;5033464;28;19999;-75
2021/10/15 07:47:15;;;;;;;;;;;7.70;99.90;;;;;;5033419;28;19912;-75
2021/10/15 07:49:41;;;;;;;;;;;7.80;99.90;;;;;;5017034;28;19951;-74
2021/10/15 07:52:07;;;;;;;;;;;7.90;99.90;;;;;;5033536;28;20458;-74
2021/10/15 07:54:33;;;;;;;;;;;8.00;99.90;;;;;;5051405;28;19932;-74
2021/10/15 07:56:59;;;;;;;;;;;8.10;99.90;;;;;;5052738;28;20007;-74
2021/10/15 07:59:25;;;;;;;;;;;8.30;99.90;;;;;;5051548;28;19916;-74
2021/10/15 08:01:51;;;;;;;;;;;8.40;99.90;;;;;;5051391;28;19976;-74
2021/10/15 08:04:16;;;;;;;;;;;8.40;99.90;;;;;;5050653;28;19908;-74
2021/10/15 08:06:42;;;;;;;;;;;8.50;99.90;;;;;;5037315;28;19905;-74
2021/10/15 08:09:08;;;;;;;;;;;8.60;99.90;;;;;;5033053;28;19915;-74
2021/10/15 08:11:33;;;;;;;;;;;8.70;99.90;;;;;;5051569;28;19912;-74
2021/10/15 08:13:59;;;;;;;;;;;8.70;99.90;;;;;;5051271;28;19905;-74
2021/10/15 08:16:25;;;;;;;;;;;8.80;99.90;;;;;;5052784;28;19923;-74
2021/10/15 08:18:51;;;;;;;;;;;8.90;99.90;;;;;;5032893;28;19905;-74
2021/10/15 08:21:18;;;;;;;;;;;9.00;99.90;;;;;;5050406;28;19962;-74
2021/10/15 08:23:45;;;;;;;;;;;9.10;99.90;;;;;;5051145;28;20319;-74
2021/10/15 08:26:11;;;;;;;;;;;9.20;99.90;;;;;;5032302;28;19952;-74
2021/10/15 08:28:38;;;;;;;;;;;9.30;99.90;;;;;;5049855;28;20339;-74
2021/10/15 08:31:04;;;;;;;;;;;9.50;99.90;;;;;;5054849;28;19913;-74
2021/10/15 08:33:30;;;;;;;;;;;9.60;99.90;;;;;;5033002;28;19908;-74
2021/10/15 08:35:55;;;;;;;;;;;9.80;99.90;;;;;;5032286;28;19908;-74
2021/10/15 08:38:21;;;;;;;;;;;10.00;99.90;;;;;;5050755;28;19912;-74
2021/10/15 08:40:47;;;;;;;;;;;10.10;99.90;;;;;;5016328;28;19909;-74
2021/10/15 08:43:13;;;;;;;;;;;10.20;99.90;;;;;;5054102;28;19905;-74
2021/10/15 08:45:39;;;;;;;;;;;10.30;99.90;;;;;;5032961;28;19985;-75
2021/10/15 08:48:05;;;;;;;;;;;10.30;99.90;;;;;;5054408;28;20364;-75
2021/10/15 08:50:31;;;;;;;;;;;10.40;99.90;;;;;;5054974;28;20050;-74
2021/10/15 08:52:57;;;;;;;;;;;10.50;99.90;;;;;;5054182;28;19904;-74
2021/10/15 08:55:24;;;;;;;;;;;10.70;99.90;;;;;;5054767;28;19915;-74
2021/10/15 08:57:58;;;;;;;;;;;10.80;99.90;;;;;;5024091;28;19909;-75
2021/10/15 09:00:25;;;;;;;;;;;10.90;99.90;;;;;;5054781;28;20356;-74
2021/10/15 09:03:10;;;;;;;;;;;10.90;99.90;;;;;;5054095;28;20365;-74
2021/10/15 09:05:36;;;;;;;;;;;11.00;99.90;;;;;;5054357;28;20322;-74
2021/10/15 09:08:03;;;;;;;;;;;11.20;99.90;;;;;;5036344;28;20039;-75
2021/10/15 09:10:29;;;;;;;;;;;11.40;99.20;;;;;;5036818;28;20054;-74
2021/10/15 09:12:58;;;;;;;;;;;11.80;97.60;;;;;;5036721;28;20410;-74
2021/10/15 09:15:33;;;;;;;;;;;12.10;96.10;;;;;;5054361;28;19912;-74
2021/10/15 09:18:08;;;;;;;;;;;12.40;95.20;;;;;;5054066;28;19911;-74
2021/10/15 09:20:35;;;;;;;;;;;12.80;93.40;;;;;;5020039;28;19931;-75
2021/10/15 09:23:02;;;;;;;;;;;13.40;91.70;;;;;;5021397;28;19912;-75
2021/10/15 09:25:32;;;;;;;;;;;13.90;89.90;;;;;;5035508;28;20380;-75
2021/10/15 09:27:58;;;;;;;;;;;14.20;87.40;;;;;;5053875;28;19904;-76
2021/10/15 09:30:25;;;;;;;;;;;15.00;84.30;;;;;;5036296;28;19927;-74
2021/10/15 09:32:53;;;;;;;;;;;15.10;80.60;;;;;;5035629;28;19905;-76
2021/10/15 09:35:20;;;;;;;;;;;15.70;77.40;;;;;;5053589;28;19912;-76
2021/10/15 09:37:47;;;;;;;;;;;16.00;75.20;;;;;;5019229;28;19999;-75
2021/10/15 09:40:15;;;;;;;;;;;16.50;71.10;;;;;;5036161;28;19944;-75
2021/10/15 09:43:05;;;;;;;;;;;16.20;67.70;;;;;;5056797;28;19905;-76
2021/10/15 09:45:37;;;;;;;;;;;16.20;70.20;;;;;;5050984;28;20007;-76
2021/10/15 09:48:16;;;;;;;;;;;16.50;67.30;;;;;;5023684;28;19905;-75
2021/10/15 09:50:42;;;;;;;;;;;16.90;66.60;;;;;;5050425;28;20360;-75
2021/10/15 09:53:08;;;;;;;;;;;17.30;65.00;;;;;;5053635;28;19931;-75
2021/10/15 09:55:35;;;;;;;;;;;17.30;65.00;;;;;;5053479;28;20440;-75
2021/10/15 09:58:12;;;;;;;;;;;17.00;63.70;;;;;;5056072;28;20371;-75
2021/10/15 10:00:38;;;;;;;;;;;16.40;64.30;;;;;;5050250;28;19908;-76
2021/10/15 10:03:04;;;;;;;;;;;16.30;66.10;;;;;;5053379;28;19912;-75
2021/10/15 10:05:33;;;;;;;;;;;16.70;63.20;;;;;;5053634;28;19970;-75
2021/10/15 10:07:58;;;;;;;;;;;16.80;62.80;;;;;;5035175;28;19909;-75
2021/10/15 10:10:25;;;;;;;;;;;17.80;61.20;;;;;;5035090;28;20372;-75
2021/10/15 10:12:51;;;;;;;;;;;18.60;58.20;;;;;;5035079;28;20372;-76
2021/10/15 10:15:20;;;;;;;;;;;18.70;57.80;;;;;;5053240;28;20048;-75
2021/10/15 10:18:01;;;;;;;;;;;18.90;56.10;;;;;;5052901;28;19924;-75
2021/10/15 10:20:53;;;;;;;;;;;19.40;55.40;;;;;;5052417;23;20003;-91
2021/10/15 10:23:27;;;;;;;;;;;19.70;54.20;;;;;;5000852;28;19906;-91
2021/10/15 10:26:02;;;;;;;;;;;20.20;53.30;;;;;;4994080;28;19921;-90
2021/10/15 10:28:58;;;;;;;;;;;20.30;52.90;;;;;;4998959;28;20208;-91
2021/10/15 10:34:05;;;;;;;;;;;21.10;51.30;;;;;;5012691;28;20365;-72
2021/10/15 10:36:32;;;;;;;;;;;21.50;49.80;;;;;;4996208;28;20007;-72
2021/10/15 10:39:17;;;;;;;;;;;20.80;49.30;;;;;;5014195;28;19905;-72
2021/10/15 10:42:02;;;;;;;;;;;20.60;50.20;;;;;;4996779;28;20490;-72
2021/10/15 10:44:28;;;;;;;;;;;20.20;51.80;;;;;;4996450;28;19975;-72
2021/10/15 10:47:15;;;;;;;;;;;20.50;51.10;;;;;;5014023;28;20357;-72
2021/10/15 10:49:42;;;;;;;;;;;21.10;50.20;;;;;;5014145;28;20069;-72
2021/10/15 10:52:09;;;;;;;;;;;21.50;48.80;;;;;;5013911;28;20214;-72
2021/10/15 10:54:35;;;;;;;;;;;21.70;49.50;;;;;;5013516;28;19909;-72
2021/10/15 10:57:21;;;;;;;;;;;21.50;48.60;;;;;;5013840;28;19905;-72
2021/10/15 10:59:47;;;;;;;;;;;21.00;48.00;;;;;;4995695;28;19916;-72
2021/10/15 11:02:18;;;;;;;;;;;21.30;48.80;;;;;;5013730;28;20285;-73
2021/10/15 11:04:44;;;;;;;;;;;21.10;49.00;;;;;;4995411;28;19909;-72
2021/10/15 11:07:09;;;;;;;;;;;21.30;48.90;;;;;;4995648;28;19905;-72
2021/10/15 11:09:41;;;;;;;;;;;21.20;49.40;;;;;;5012853;28;19935;-72
2021/10/15 11:12:07;;;;;;;;;;;21.90;48.80;;;;;;5013128;28;20407;-73
2021/10/15 11:14:49;;;;;;;;;;;22.10;46.90;;;;;;5013494;28;19909;-73
2021/10/15 11:17:15;;;;;;;;;;;22.10;48.10;;;;;;4980403;28;19906;-73
2021/10/15 11:19:41;;;;;;;;;;;21.50;48.90;;;;;;4996672;28;20072;-73
2021/10/15 11:22:07;;;;;;;;;;;21.40;48.50;;;;;;4996355;28;20369;-73
2021/10/15 11:24:33;;;;;;;;;;;21.00;50.10;;;;;;4996044;28;19945;-73
2021/10/15 11:26:58;;;;;;;;;;;21.20;50.00;;;;;;5013473;28;19994;-73
2021/10/15 11:29:24;;;;;;;;;;;21.30;50.20;;;;;;4996015;28;19905;-73
2021/10/15 11:31:54;;;;;;;;;;;21.60;49.50;;;;;;5013318;28;19916;-74
2021/10/15 11:34:19;;;;;;;;;;;21.00;50.00;;;;;;5013536;28;19910;-73
2021/10/15 11:36:45;;;;;;;;;;;20.60;50.90;;;;;;5023540;28;19931;-73
2021/10/15 11:39:11;;;;;;;;;;;21.50;49.90;;;;;;5015493;28;19905;-73
2021/10/15 11:41:49;;;;;;;;;;;21.50;48.70;;;;;;5000742;28;19960;-73
2021/10/15 11:44:15;;;;;;;;;;;21.90;48.30;;;;;;4980273;28;19913;-73
2021/10/15 11:46:41;;;;;;;;;;;21.50;47.70;;;;;;5013498;28;19909;-73
2021/10/15 11:49:07;;;;;;;;;;;21.70;48.60;;;;;;5013127;28;19905;-72
2021/10/15 11:51:32;;;;;;;;;;;21.90;47.80;;;;;;5013130;28;19916;-73
2021/10/15 11:53:59;;;;;;;;;;;21.50;48.00;;;;;;5013392;28;19906;-73
2021/10/15 11:56:26;;;;;;;;;;;21.10;48.80;;;;;;5012975;28;19905;-73
2021/10/15 11:58:52;;;;;;;;;;;20.90;50.40;;;;;;4995537;28;19909;-73
2021/10/15 12:01:29;;;;;;;;;;;20.90;50.00;;;;;;5013611;28;19916;-73
2021/10/15 12:04:02;;;;;;;;;;;20.40;50.10;;;;;;5012916;28;20384;-73
2021/10/15 12:06:28;;;;;;;;;;;20.20;50.20;;;;;;5013211;28;19995;-73
2021/10/15 12:09:02;;;;;;;;;;;20.00;49.80;;;;;;5013004;28;20339;-73
2021/10/15 12:11:36;;;;;;;;;;;20.30;50.20;;;;;;4995145;28;20365;-72
2021/10/15 12:14:03;;;;;;;;;;;20.20;50.90;;;;;;5012472;28;19980;-72
2021/10/15 12:16:33;;;;;;;;;;;20.40;50.00;;;;;;5012151;28;19913;-72
2021/10/15 12:19:04;;;;;;;;;;;20.10;50.70;;;;;;5015036;28;19935;-73
2021/10/15 12:21:40;;;;;;;;;;;19.90;50.70;;;;;;5012447;28;19925;-73
2021/10/15 12:24:07;;;;;;;;;;;20.50;50.50;;;;;;5012952;28;20059;-72
2021/10/15 12:26:33;;;;;;;;;;;21.30;48.90;;;;;;4995266;28;19906;-73
2021/10/15 12:28:59;;;;;;;;;;;21.90;48.00;;;;;;5012784;28;19906;-73
2021/10/15 12:31:25;;;;;;;;;;;22.50;46.20;;;;;;4994892;28;19948;-73
2021/10/15 12:34:00;;;;;;;;;;;22.90;45.30;;;;;;4978506;28;19917;-72
2021/10/15 12:36:26;;;;;;;;;;;22.80;45.40;;;;;;5011935;28;19916;-72
2021/10/15 12:38:52;;;;;;;;;;;23.00;44.70;;;;;;5011819;28;19909;-72
2021/10/15 12:41:24;;;;;;;;;;;22.60;45.70;;;;;;5012254;28;19905;-72
2021/10/15 12:43:52;;;;;;;;;;;22.00;46.80;;;;;;5012070;28;19928;-72
2021/10/15 12:46:18;;;;;;;;;;;21.90;47.00;;;;;;5011693;28;19909;-72
2021/10/15 12:48:44;;;;;;;;;;;22.10;46.80;;;;;;5011971;28;20004;-72
2021/10/15 12:51:14;;;;;;;;;;;22.00;46.20;;;;;;5011923;28;19995;-72
2021/10/15 12:53:45;;;;;;;;;;;21.90;47.20;;;;;;5012097;28;19955;-72
2021/10/15 12:56:17;;;;;;;;;;;21.70;46.50;;;;;;5011796;28;20377;-72
2021/10/15 12:58:53;;;;;;;;;;;20.80;48.50;;;;;;4977870;28;20326;-72
2021/10/15 13:01:24;;;;;;;;;;;19.70;50.90;;;;;;5011833;28;19955;-72
2021/10/15 13:03:50;;;;;;;;;;;19.50;51.80;;;;;;5011765;28;19955;-72
2021/10/15 13:06:15;;;;;;;;;;;19.60;52.20;;;;;;5011678;28;19941;-72
2021/10/15 13:08:44;;;;;;;;;;;19.70;51.20;;;;;;4994142;28;19983;-73
2021/10/15 13:11:10;;;;;;;;;;;20.00;50.90;;;;;;5011702;28;19993;-72
2021/10/15 13:13:35;;;;;;;;;;;19.80;51.40;;;;;;4994352;28;19917;-72
2021/10/15 13:16:01;;;;;;;;;;;19.70;51.20;;;;;;5011712;28;20276;-72
2021/10/15 13:18:27;;;;;;;;;;;19.60;52.20;;;;;;5011666;28;19925;-72
2021/10/15 13:20:52;;;;;;;;;;;19.50;52.70;;;;;;4994230;28;19905;-72
2021/10/15 13:23:18;;;;;;;;;;;19.20;52.70;;;;;;5012012;28;20349;-72
2021/10/15 13:25:44;;;;;;;;;;;19.00;52.80;;;;;;5011775;28;20277;-74
2021/10/15 13:28:09;;;;;;;;;;;18.60;54.20;;;;;;4993472;28;20354;-72
2021/10/15 13:30:36;;;;;;;;;;;18.40;55.00;;;;;;4994447;28;19913;-72
2021/10/15 13:33:02;;;;;;;;;;;18.00;55.10;;;;;;4998025;28;20105;-72
2021/10/15 13:35:28;;;;;;;;;;;17.90;56.00;;;;;;5015493;28;19912;-72
2021/10/15 13:40:22;;;;;;;;;;;18.10;56.60;;;;;;5014918;28;19912;-72
2021/10/15 13:50:29;;;;;;;;;;;18.20;56.70;;;;;;5015614;28;19916;-74
2021/10/15 13:52:55;;;;;;;;;;;18.30;55.70;;;;;;4997711;28;20284;-73
2021/10/15 13:55:21;;;;;;;;;;;18.30;56.10;;;;;;5014720;28;20008;-73
2021/10/15 13:57:47;;;;;;;;;;;18.30;55.40;;;;;;4997447;28;20423;-73
2021/10/15 14:00:20;;;;;;;;;;;17.90;57.10;;;;;;4997327;28;19905;-73
2021/10/15 14:02:51;;;;;;;;;;;18.00;56.90;;;;;;5014549;28;20499;-74
2021/10/15 14:05:18;;;;;;;;;;;18.00;56.20;;;;;;5014495;28;19924;-73
2021/10/15 14:07:44;;;;;;;;;;;18.20;56.10;;;;;;5014646;28;19909;-73
2021/10/15 14:10:10;;;;;;;;;;;18.20;56.40;;;;;;5014798;28;19917;-73
2021/10/15 14:12:35;;;;;;;;;;;18.10;56.30;;;;;;5014666;28;19923;-72
2021/10/15 14:15:01;;;;;;;;;;;17.80;56.50;;;;;;5014396;28;20015;-72
2021/10/15 14:17:27;;;;;;;;;;;17.80;57.30;;;;;;4997233;28;19905;-72
2021/10/15 14:19:53;;;;;;;;;;;17.60;57.70;;;;;;5014244;28;19905;-72
2021/10/15 14:22:19;;;;;;;;;;;17.70;57.80;;;;;;5014323;28;19980;-72
2021/10/15 14:24:45;;;;;;;;;;;17.60;57.80;;;;;;5013607;28;20435;-72
2021/10/15 14:27:10;;;;;;;;;;;17.50;57.80;;;;;;5018529;28;19905;-73
2021/10/15 14:29:36;;;;;;;;;;;17.50;58.50;;;;;;5028185;28;19909;-72
2021/10/15 14:32:02;;;;;;;;;;;17.50;58.80;;;;;;5013975;28;19917;-72
2021/10/15 14:34:28;;;;;;;;;;;17.60;59.00;;;;;;5006813;28;19913;-72
2021/10/15 14:36:54;;;;;;;;;;;17.40;59.00;;;;;;5016041;28;19972;-72
2021/10/15 14:39:19;;;;;;;;;;;17.40;59.60;;;;;;5033685;28;19912;-72
2021/10/15 14:41:47;;;;;;;;;;;17.20;59.00;;;;;;4999812;28;19915;-72
2021/10/15 14:44:13;;;;;;;;;;;16.90;60.90;;;;;;4995698;28;19905;-72
2021/10/15 14:46:44;;;;;;;;;;;17.20;61.20;;;;;;4996999;28;19905;-72
2021/10/15 14:49:11;;;;;;;;;;;17.20;60.30;;;;;;4996278;28;19905;-72